Time;durP1;ratioP1;P1;durP2;ratioP2;P2;SDS_P1;SDS_P2;PMS_P1;PMS_P2;Temp;Humidity;BMP_temperature;BMP_pressure;BME280_temperature;BME280_humidity;BME280_pressure;Samples;Min_cycle;Max_cycle;Signal;HPM_P1;HPM_P2
2022/12/11 00:00:34;;;;;;;12.77;7.53;;;;;;;-3.29;100.00;100259.16;4956124;28;20210;-70
2022/12/11 00:03:03;;;;;;;13.90;6.97;;;;;;;-3.27;100.00;100258.38;4956097;28;20205;-70
2022/12/11 00:05:30;;;;;;;14.90;7.40;;;;;;;-3.26;100.00;100261.78;4955943;28;20198;-70
2022/12/11 00:07:57;;;;;;;15.03;7.77;;;;;;;-3.29;100.00;100249.84;4955400;28;20232;-70
2022/12/11 00:10:24;;;;;;;12.77;7.67;;;;;;;-3.30;100.00;100250.66;4954895;28;20570;-69
2022/12/11 00:12:50;;;;;;;13.00;6.27;;;;;;;-3.31;100.00;100253.16;4954620;28;20218;-70
2022/12/11 00:15:17;;;;;;;13.17;7.57;;;;;;;-3.30;100.00;100243.00;4955745;28;20226;-71
2022/12/11 00:17:43;;;;;;;16.80;8.30;;;;;;;-3.38;100.00;100241.94;4955291;28;20241;-70
2022/12/11 00:20:10;;;;;;;18.03;8.40;;;;;;;-3.37;100.00;100250.47;4956395;28;20206;-70
2022/12/11 00:22:38;;;;;;;15.00;8.03;;;;;;;-3.40;100.00;100253.78;4954814;28;20393;-70
2022/12/11 00:25:05;;;;;;;14.70;8.03;;;;;;;-3.40;100.00;100255.50;4952870;28;20225;-70
2022/12/11 00:27:31;;;;;;;14.20;7.70;;;;;;;-3.33;100.00;100253.13;4955306;28;20226;-70
2022/12/11 00:29:59;;;;;;;19.40;8.43;;;;;;;-3.36;100.00;100250.50;4947249;28;20838;-70
2022/12/11 00:32:25;;;;;;;13.27;7.87;;;;;;;-3.32;100.00;100254.00;4953413;28;20210;-70
2022/12/11 00:34:51;;;;;;;15.37;8.07;;;;;;;-3.33;100.00;100255.66;4954051;28;20210;-70
2022/12/11 00:37:18;;;;;;;15.43;7.63;;;;;;;-3.34;100.00;100253.97;4955041;28;20222;-70
2022/12/11 00:39:45;;;;;;;11.30;7.07;;;;;;;-3.30;100.00;100255.75;4955741;28;20212;-70
2022/12/11 00:42:12;;;;;;;19.33;8.40;;;;;;;-3.30;100.00;100265.94;4955639;28;20265;-70
2022/12/11 00:44:39;;;;;;;12.00;6.90;;;;;;;-3.28;100.00;100264.28;4955589;28;20339;-70
2022/12/11 00:47:07;;;;;;;14.30;7.20;;;;;;;-3.28;100.00;100271.94;4953282;28;20209;-70
2022/12/11 00:49:33;;;;;;;12.87;7.80;;;;;;;-3.26;100.00;100266.88;4955919;28;20206;-70
2022/12/11 00:52:00;;;;;;;14.77;7.93;;;;;;;-3.27;100.00;100273.69;4954462;28;20297;-70
2022/12/11 00:54:26;;;;;;;18.20;8.33;;;;;;;-3.31;100.00;100256.56;4953793;28;20713;-71
2022/12/11 00:56:55;;;;;;;14.87;8.00;;;;;;;-3.25;100.00;100268.63;4952405;28;20230;-70
2022/12/11 00:59:21;;;;;;;17.40;8.20;;;;;;;-3.20;100.00;100271.25;4954396;28;20206;-70
2022/12/11 01:01:48;;;;;;;17.33;8.93;;;;;;;-3.18;100.00;100265.38;4956671;28;20202;-70
2022/12/11 01:04:14;;;;;;;17.10;8.60;;;;;;;-3.13;100.00;100260.38;4955674;28;20755;-70
2022/12/11 01:06:40;;;;;;;13.20;7.47;;;;;;;-3.17;100.00;100256.88;4944727;28;20214;-70
2022/12/11 01:11:52;;;;;;;12.67;8.10;;;;;;;-3.29;100.00;100262.59;4953875;28;20225;-70
2022/12/11 01:14:19;;;;;;;14.57;7.93;;;;;;;-3.35;100.00;100254.78;4952800;28;20706;-70
2022/12/11 01:16:46;;;;;;;16.00;8.30;;;;;;;-3.33;100.00;100250.56;4953013;28;20222;-70
2022/12/11 01:19:12;;;;;;;13.57;7.97;;;;;;;-3.29;100.00;100242.19;4956416;28;20225;-70
2022/12/11 01:21:38;;;;;;;15.87;8.63;;;;;;;-3.32;100.00;100248.91;4954368;28;20206;-70
2022/12/11 01:24:05;;;;;;;16.50;8.20;;;;;;;-3.34;100.00;100256.50;4951837;28;20198;-70
2022/12/11 01:26:32;;;;;;;15.97;8.20;;;;;;;-3.33;100.00;100263.31;4952592;28;20202;-70
2022/12/11 01:28:58;;;;;;;13.33;7.37;;;;;;;-3.30;100.00;100254.91;4953373;28;20778;-71
2022/12/11 01:31:26;;;;;;;15.87;8.37;;;;;;;-3.33;100.00;100254.81;4946499;28;20621;-70
2022/12/11 01:33:54;;;;;;;16.10;8.30;;;;;;;-3.35;100.00;100253.91;4953881;28;20206;-70
2022/12/11 01:36:22;;;;;;;16.60;8.10;;;;;;;-3.34;100.00;100256.50;4954460;28;20248;-70
2022/12/11 01:38:49;;;;;;;15.53;8.37;;;;;;;-3.34;100.00;100256.50;4952481;28;20233;-71
2022/12/11 01:41:16;;;;;;;18.20;8.70;;;;;;;-3.29;100.00;100251.50;4952343;28;20210;-70
2022/12/11 01:44:02;;;;;;;13.83;7.33;;;;;;;-3.29;100.00;100259.16;4953575;28;20280;-70
2022/12/11 01:46:32;;;;;;;13.83;8.03;;;;;;;-3.35;100.00;100254.78;4950125;28;20208;-70
2022/12/11 01:49:00;;;;;;;13.43;7.30;;;;;;;-3.30;100.00;100255.75;4953236;28;20768;-70
2022/12/11 01:51:31;;;;;;;15.33;8.40;;;;;;;-3.34;100.00;100251.41;4955669;28;20686;-70
2022/12/11 01:54:02;;;;;;;15.00;6.77;;;;;;;-3.41;100.00;100252.09;4936901;28;20221;-70
2022/12/11 01:56:32;;;;;;;13.67;7.57;;;;;;;-3.40;100.00;100243.59;4953892;28;20217;-70
2022/12/11 01:59:05;;;;;;;17.07;7.50;;;;;;;-3.33;100.00;100245.47;4955661;28;20229;-70
2022/12/11 02:01:39;;;;;;;14.53;7.13;;;;;;;-3.33;100.00;100248.00;4954304;28;20465;-70
2022/12/11 02:04:07;;;;;;;15.77;8.03;;;;;;;-3.37;100.00;100246.22;4953382;28;20253;-70
2022/12/11 02:06:36;;;;;;;12.43;7.40;;;;;;;-3.45;100.00;100255.38;4953316;28;20210;-69
2022/12/11 02:09:04;;;;;;;14.17;7.03;;;;;;;-3.42;100.00;100255.44;4952569;28;20714;-70
2022/12/11 02:11:39;;;;;;;15.53;6.80;;;;;;;-3.38;100.00;100248.72;4954098;28;20206;-69
2022/12/11 02:14:12;;;;;;;15.33;7.50;;;;;;;-3.38;100.00;100249.59;4952279;28;20205;-68
2022/12/11 02:16:46;;;;;;;13.20;7.53;;;;;;;-3.47;100.00;100246.81;4953022;28;20603;-69
2022/12/11 02:19:22;;;;;;;13.50;7.10;;;;;;;-3.52;100.00;100246.69;4951892;28;20262;-70
2022/12/11 02:21:52;;;;;;;12.30;7.13;;;;;;;-3.51;100.00;100247.59;4951034;28;20205;-70
2022/12/11 02:24:38;;;;;;;13.73;6.87;;;;;;;-3.54;100.00;100243.25;4951511;28;20208;-70
2022/12/11 02:27:23;;;;;;;13.67;7.47;;;;;;;-3.53;100.00;100242.44;4952482;28;20220;-70
2022/12/11 02:29:55;;;;;;;15.93;8.10;;;;;;;-3.49;100.00;100249.31;4953191;28;20201;-70
2022/12/11 02:32:26;;;;;;;15.80;7.20;;;;;;;-3.42;100.00;100241.00;4947523;28;20205;-70
2022/12/11 02:37:55;;;;;;;17.80;8.27;;;;;;;-3.52;100.00;100233.94;4946597;28;20710;-70
2022/12/11 02:40:25;;;;;;;18.33;8.23;;;;;;;-3.41;100.00;100234.25;4950833;28;20574;-70
2022/12/11 02:42:55;;;;;;;15.13;7.87;;;;;;;-3.49;100.00;100230.63;4944438;28;20566;-70
2022/12/11 02:45:26;;;;;;;15.27;7.80;;;;;;;-3.51;100.00;100235.69;4950752;28;20210;-70
2022/12/11 02:47:52;;;;;;;17.97;8.97;;;;;;;-3.52;100.00;100233.94;4951325;28;20226;-70
2022/12/11 02:50:22;;;;;;;14.10;7.47;;;;;;;-3.50;100.00;100236.53;4952867;28;20590;-69
2022/12/11 02:52:52;;;;;;;13.80;7.93;;;;;;;-3.48;100.00;100232.38;4951857;28;20217;-70
2022/12/11 02:55:20;;;;;;;16.03;9.07;;;;;;;-3.50;100.00;100241.63;4953372;28;20550;-70
2022/12/11 02:57:51;;;;;;;14.57;8.23;;;;;;;-3.52;100.00;100246.69;4948499;28;20225;-70
2022/12/11 03:00:18;;;;;;;15.30;7.67;;;;;;;-3.46;100.00;100235.81;4952433;28;20201;-70
2022/12/11 03:02:46;;;;;;;14.43;8.17;;;;;;;-3.46;100.00;100231.56;4941484;28;21018;-69
2022/12/11 03:05:13;;;;;;;13.30;7.43;;;;;;;-3.44;100.00;100231.59;4948582;28;20202;-69
2022/12/11 03:07:41;;;;;;;15.03;7.67;;;;;;;-3.48;100.00;100229.81;4951464;28;20226;-70
2022/12/11 03:10:11;;;;;;;16.67;7.87;;;;;;;-3.49;100.00;100236.59;4951453;28;20687;-70
2022/12/11 03:12:40;;;;;;;15.37;8.37;;;;;;;-3.47;100.00;100226.44;4951949;28;20202;-70
2022/12/11 03:15:09;;;;;;;17.07;8.90;;;;;;;-3.41;100.00;100229.16;4950995;28;20638;-70
2022/12/11 03:17:42;;;;;;;16.97;8.13;;;;;;;-3.45;100.00;100225.66;4950360;28;20883;-70
2022/12/11 03:20:14;;;;;;;17.90;8.67;;;;;;;-3.52;100.00;100225.44;4952079;28;20217;-70
2022/12/11 03:22:47;;;;;;;18.07;8.63;;;;;;;-3.54;100.00;100225.41;4952983;28;20202;-69
2022/12/11 03:25:19;;;;;;;17.43;7.83;;;;;;;-3.60;100.00;100224.41;4953436;28;20618;-71
2022/12/11 03:27:50;;;;;;;15.63;7.43;;;;;;;-3.62;100.00;100229.47;4949794;28;20732;-70
2022/12/11 03:30:19;;;;;;;14.13;7.73;;;;;;;-3.65;100.00;100230.25;4952864;28;20255;-70
2022/12/11 03:32:51;;;;;;;19.40;8.53;;;;;;;-3.64;100.00;100233.66;4951898;28;20202;-70
2022/12/11 03:35:23;;;;;;;16.63;8.07;;;;;;;-3.63;100.00;100230.28;4952012;28;20558;-70
2022/12/11 03:37:52;;;;;;;19.87;8.93;;;;;;;-3.64;100.00;100226.88;4952086;28;20229;-70
2022/12/11 03:40:21;;;;;;;15.67;7.80;;;;;;;-3.62;100.00;100232.88;4953880;28;20206;-70
2022/12/11 03:42:51;;;;;;;14.23;8.07;;;;;;;-3.67;100.00;100231.03;4950784;28;20269;-70
2022/12/11 03:45:20;;;;;;;16.40;8.10;;;;;;;-3.69;100.00;100233.56;4951627;28;20221;-70
2022/12/11 03:47:48;;;;;;;14.77;7.63;;;;;;;-3.70;100.00;100236.91;4949486;28;20226;-69
2022/12/11 03:50:18;;;;;;;15.27;8.40;;;;;;;-3.60;100.00;100239.72;4953035;28;20217;-70
2022/12/11 03:52:47;;;;;;;21.10;8.73;;;;;;;-3.64;100.00;100242.19;4952122;28;20218;-71
2022/12/11 03:55:16;;;;;;;13.17;7.87;;;;;;;-3.64;100.00;100239.63;4950789;28;20255;-70
2022/12/11 03:57:43;;;;;;;15.20;8.20;;;;;;;-3.66;100.00;100240.41;4952060;28;21545;-71
2022/12/11 04:00:12;;;;;;;13.47;7.70;;;;;;;-3.59;100.00;100238.88;4952868;28;20749;-70
2022/12/11 04:02:39;;;;;;;13.03;7.27;;;;;;;-3.63;100.00;100232.84;4944157;28;20219;-70
2022/12/11 04:05:07;;;;;;;16.97;8.37;;;;;;;-3.62;100.00;100234.56;4952218;28;20722;-70
2022/12/11 04:07:33;;;;;;;15.57;8.33;;;;;;;-3.62;100.00;100240.53;4952512;28;20220;-70
2022/12/11 04:10:02;;;;;;;15.93;8.40;;;;;;;-3.65;100.00;100235.34;4951989;28;20502;-70
2022/12/11 04:12:29;;;;;;;18.03;8.40;;;;;;;-3.63;100.00;100243.88;4950711;28;20755;-70
2022/12/11 04:15:04;;;;;;;17.40;8.90;;;;;;;-3.68;100.00;100235.25;4951405;28;20218;-69
2022/12/11 04:25:45;;;;;;;16.77;8.27;;;;;;;-3.71;100.00;100235.19;4954840;28;20210;-69
2022/12/11 04:28:12;;;;;;;17.10;9.40;;;;;;;-3.69;100.00;100232.69;4953511;28;20222;-69
2022/12/11 04:30:38;;;;;;;17.87;8.53;;;;;;;-3.73;100.00;100228.31;4954627;28;20210;-70
2022/12/11 04:33:04;;;;;;;19.77;9.00;;;;;;;-3.70;100.00;100226.72;4951798;28;20852;-69
2022/12/11 04:35:31;;;;;;;15.87;8.40;;;;;;;-3.70;100.00;100225.88;4955192;28;20567;-69
2022/12/11 04:37:57;;;;;;;19.17;8.47;;;;;;;-3.74;100.00;100222.38;4951642;28;20252;-68
2022/12/11 04:40:25;;;;;;;22.40;9.97;;;;;;;-3.75;100.00;100214.69;4954693;28;20595;-69
2022/12/11 04:42:52;;;;;;;16.00;8.93;;;;;;;-3.75;100.00;100217.25;4934032;28;20216;-69
2022/12/11 04:45:19;;;;;;;17.03;8.43;;;;;;;-3.73;100.00;100225.78;4954048;28;20213;-69
2022/12/11 04:47:45;;;;;;;18.43;8.47;;;;;;;-3.71;100.00;100221.56;4952478;28;20226;-70
2022/12/11 04:50:14;;;;;;;17.33;9.53;;;;;;;-3.73;100.00;100226.66;4955292;28;20202;-69
2022/12/11 04:52:41;;;;;;;17.57;8.37;;;;;;;-3.76;100.00;100221.47;4954878;28;20199;-69
2022/12/11 04:55:09;;;;;;;19.20;10.10;;;;;;;-3.73;100.00;100223.22;4952491;28;20781;-69
2022/12/11 04:57:35;;;;;;;20.63;9.67;;;;;;;-3.81;100.00;100225.59;4955718;28;20237;-69
2022/12/11 05:00:04;;;;;;;17.33;9.27;;;;;;;-3.82;100.00;100217.09;5004723;23;20240;-70
2022/12/11 05:02:30;;;;;;;16.57;8.70;;;;;;;-3.78;100.00;100215.50;5001383;28;20577;-72
2022/12/11 05:04:57;;;;;;;13.93;8.27;;;;;;;-3.80;100.00;100212.00;4999985;28;20832;-72
2022/12/11 05:07:23;;;;;;;15.20;7.77;;;;;;;-3.82;100.00;100204.34;5002379;28;20246;-72
2022/12/11 05:09:49;;;;;;;19.13;9.30;;;;;;;-3.91;100.00;100204.09;4990947;28;20615;-72
2022/12/11 05:12:16;;;;;;;14.13;8.30;;;;;;;-3.90;100.00;100193.09;4994142;28;20600;-72
2022/12/11 05:14:43;;;;;;;21.17;8.57;;;;;;;-3.96;100.00;100200.56;4997168;28;20206;-72
2022/12/11 05:17:11;;;;;;;17.13;8.63;;;;;;;-3.93;100.00;100205.75;4998561;28;20226;-71
2022/12/11 05:19:37;;;;;;;20.27;8.27;;;;;;;-3.97;100.00;100203.06;4998825;28;20609;-72
2022/12/11 05:22:03;;;;;;;17.60;9.33;;;;;;;-4.02;100.00;100201.28;4997943;28;20232;-72
2022/12/11 05:24:30;;;;;;;20.47;9.07;;;;;;;-4.05;100.00;100196.09;4997043;28;20219;-72
2022/12/11 05:26:56;;;;;;;17.27;9.03;;;;;;;-4.03;100.00;100198.69;4996877;28;20565;-71
2022/12/11 05:29:22;;;;;;;17.07;8.80;;;;;;;-4.06;100.00;100196.94;5001402;28;20946;-72
2022/12/11 05:31:49;;;;;;;18.40;9.67;;;;;;;-4.05;100.00;100187.59;4995809;28;20205;-71
2022/12/11 05:34:16;;;;;;;15.97;8.33;;;;;;;-4.08;100.00;100193.50;4999252;28;20637;-71
2022/12/11 05:36:43;;;;;;;15.87;7.97;;;;;;;-4.09;100.00;100194.31;5000132;28;20480;-72
2022/12/11 05:39:11;;;;;;;17.87;8.90;;;;;;;-4.10;100.00;100181.53;4994787;28;20593;-71
2022/12/11 05:41:39;;;;;;;16.67;9.20;;;;;;;-4.10;100.00;100189.16;4995328;28;20201;-72
2022/12/11 05:44:05;;;;;;;19.40;9.83;;;;;;;-4.14;100.00;100182.28;4996855;28;20632;-72
2022/12/11 05:46:31;;;;;;;14.27;8.30;;;;;;;-4.10;100.00;100178.97;5000056;28;20570;-72
2022/12/11 05:49:00;;;;;;;15.63;8.83;;;;;;;-4.05;100.00;100182.50;4999510;28;20228;-71
2022/12/11 05:51:30;;;;;;;22.27;10.63;;;;;;;-4.13;100.00;100189.97;4998722;28;20197;-72
2022/12/11 05:53:57;;;;;;;19.53;10.13;;;;;;;-4.14;100.00;100185.69;4999393;28;20462;-72
2022/12/11 05:56:26;;;;;;;18.07;9.83;;;;;;;-4.16;100.00;100178.84;4995942;28;20212;-72
2022/12/11 05:58:54;;;;;;;18.83;8.50;;;;;;;-4.18;100.00;100174.56;4995377;28;20912;-71
2022/12/11 06:01:22;;;;;;;17.87;9.10;;;;;;;-4.24;100.00;100182.03;4992759;28;21079;-71
2022/12/11 06:03:48;;;;;;;18.27;10.10;;;;;;;-4.22;100.00;100174.41;4998956;28;20470;-72
2022/12/11 06:06:15;;;;;;;23.77;10.13;;;;;;;-4.20;100.00;100176.19;4997027;28;20470;-70
2022/12/11 06:08:43;;;;;;;20.93;9.80;;;;;;;-4.19;100.00;100172.84;4996696;28;20479;-72
2022/12/11 06:11:11;;;;;;;20.17;10.33;;;;;;;-4.17;100.00;100177.94;4990727;28;20476;-72
2022/12/11 06:13:38;;;;;;;19.20;9.47;;;;;;;-4.12;100.00;100178.09;4998593;28;20487;-71
2022/12/11 06:16:07;;;;;;;17.37;9.70;;;;;;;-4.12;100.00;100183.19;4991051;28;21057;-71
2022/12/11 06:18:35;;;;;;;16.53;9.40;;;;;;;-4.17;100.00;100172.84;4997116;28;20491;-71
2022/12/11 06:21:02;;;;;;;18.40;10.23;;;;;;;-4.12;100.00;100178.94;4996755;28;20194;-72
2022/12/11 06:23:28;;;;;;;18.97;8.83;;;;;;;-4.15;100.00;100172.91;4996310;28;20879;-72
2022/12/11 06:25:56;;;;;;;18.40;8.90;;;;;;;-4.14;100.00;100175.50;4994168;28;20466;-70
2022/12/11 06:28:22;;;;;;;18.90;9.20;;;;;;;-4.14;100.00;100182.28;4997782;28;20462;-72
2022/12/11 06:30:48;;;;;;;18.83;9.43;;;;;;;-4.11;100.00;100177.28;4996352;28;20676;-71
2022/12/11 06:33:15;;;;;;;17.50;8.43;;;;;;;-4.11;100.00;100180.69;4995064;28;20208;-72
2022/12/11 06:35:41;;;;;;;20.13;10.90;;;;;;;-4.12;100.00;100184.03;4993275;28;20478;-72
2022/12/11 06:38:07;;;;;;;19.67;10.43;;;;;;;-4.13;100.00;100174.69;4993998;28;20470;-72
2022/12/11 06:40:34;;;;;;;19.00;9.73;;;;;;;-4.14;100.00;100172.94;4993615;28;20211;-72
2022/12/11 06:43:02;;;;;;;19.03;9.07;;;;;;;-4.07;100.00;100181.63;4991433;28;20205;-72
2022/12/11 06:45:29;;;;;;;19.00;9.90;;;;;;;-4.03;100.00;100188.50;4995697;28;20533;-72
2022/12/11 06:47:55;;;;;;;20.17;10.03;;;;;;;-4.08;100.00;100188.41;4997377;28;20577;-72
2022/12/11 06:50:22;;;;;;;19.00;10.00;;;;;;;-4.04;100.00;100191.88;4998519;28;20247;-72
2022/12/11 06:52:48;;;;;;;17.67;9.97;;;;;;;-4.03;100.00;100189.38;4995817;28;20460;-72
2022/12/11 06:55:15;;;;;;;35.40;12.43;;;;;;;-4.02;100.00;100187.69;4996304;28;20219;-72
2022/12/11 06:57:41;;;;;;;34.70;12.77;;;;;;;-4.05;100.00;100185.91;4993550;28;20227;-72
2022/12/11 07:00:10;;;;;;;20.30;11.30;;;;;;;-4.04;100.00;100191.88;4999781;28;20239;-72
2022/12/11 07:02:37;;;;;;;23.70;10.73;;;;;;;-4.03;100.00;100191.94;4999443;28;20211;-72
2022/12/11 07:05:04;;;;;;;19.50;10.13;;;;;;;-4.07;100.00;100190.09;4998764;28;20197;-71
2022/12/11 07:07:30;;;;;;;18.73;9.23;;;;;;;-4.05;100.00;100187.59;4989977;28;20945;-72
2022/12/11 07:09:57;;;;;;;19.40;10.60;;;;;;;-4.04;100.00;100184.25;4992674;28;20594;-72
2022/12/11 07:12:23;;;;;;;22.93;10.00;;;;;;;-3.98;100.00;100183.53;4997252;28;21028;-72
2022/12/11 07:14:49;;;;;;;19.00;9.53;;;;;;;-3.98;100.00;100193.72;4992023;28;20585;-72
2022/12/11 07:17:17;;;;;;;19.97;10.63;;;;;;;-3.95;100.00;100184.47;4996367;28;20436;-72
2022/12/11 07:19:43;;;;;;;19.03;10.43;;;;;;;-4.02;100.00;100180.91;4998087;28;20221;-72
2022/12/11 07:22:10;;;;;;;16.83;10.13;;;;;;;-3.97;100.00;100183.59;4999284;28;20267;-72
2022/12/11 07:24:36;;;;;;;17.50;9.27;;;;;;;-3.96;100.00;100181.88;4996403;28;20201;-72
2022/12/11 07:27:04;;;;;;;19.57;9.80;;;;;;;-3.93;100.00;100187.06;4997400;28;20326;-71
2022/12/11 07:29:30;;;;;;;17.23;9.70;;;;;;;-3.95;100.00;100189.56;4996832;28;20240;-72
2022/12/11 07:31:56;;;;;;;20.63;9.60;;;;;;;-3.94;100.00;100192.97;4998684;28;20200;-72
2022/12/11 07:34:24;;;;;;;21.03;10.93;;;;;;;-3.90;100.00;100198.19;4997493;28;20459;-72
2022/12/11 07:36:50;;;;;;;20.90;9.93;;;;;;;-3.92;100.00;100202.41;4998503;28;20992;-71
2022/12/11 07:39:17;;;;;;;24.73;10.77;;;;;;;-3.84;100.00;100208.53;4994392;28;20479;-71
2022/12/11 07:41:43;;;;;;;20.53;9.90;;;;;;;-3.74;100.00;100204.53;4997012;28;20662;-71
2022/12/11 07:44:10;;;;;;;18.47;8.90;;;;;;;-3.83;100.00;100207.72;4996689;28;20689;-72
2022/12/11 07:46:37;;;;;;;19.90;10.53;;;;;;;-3.82;100.00;100204.34;4996913;28;20276;-72
2022/12/11 07:49:05;;;;;;;19.77;10.03;;;;;;;-3.76;100.00;100207.84;4997097;28;20232;-71
2022/12/11 07:51:34;;;;;;;16.33;8.90;;;;;;;-3.79;100.00;100211.19;4999413;28;20466;-70
2022/12/11 07:54:03;;;;;;;17.30;10.07;;;;;;;-3.71;100.00;100219.91;4999986;28;20197;-72
2022/12/11 07:56:30;;;;;;;21.23;10.97;;;;;;;-3.71;100.00;100203.75;4997454;28;20204;-71
2022/12/11 07:58:59;;;;;;;26.33;11.67;;;;;;;-3.72;100.00;100210.53;4970722;28;21070;-72
2022/12/11 08:01:27;;;;;;;24.83;12.20;;;;;;;-3.74;100.00;100211.34;4987212;28;20212;-71
2022/12/11 08:03:55;;;;;;;18.77;10.50;;;;;;;-3.73;100.00;100206.28;4986811;28;20403;-72
2022/12/11 08:06:26;;;;;;;20.50;10.93;;;;;;;-3.74;100.00;100209.63;4989123;28;20205;-72
2022/12/11 08:08:54;;;;;;;26.73;12.83;;;;;;;-3.68;100.00;100208.91;4987537;28;20713;-72
2022/12/11 08:11:21;;;;;;;19.80;11.07;;;;;;;-3.67;100.00;100208.97;4996520;28;20604;-72
2022/12/11 08:13:47;;;;;;;21.83;10.43;;;;;;;-3.63;100.00;100215.84;4997768;28;20200;-71
2022/12/11 08:16:15;;;;;;;19.30;10.90;;;;;;;-3.66;100.00;100217.47;5000175;28;20590;-72
2022/12/11 08:18:43;;;;;;;23.87;10.43;;;;;;;-3.59;100.00;100219.34;4999736;28;20995;-71
2022/12/11 08:21:12;;;;;;;21.00;10.53;;;;;;;-3.60;100.00;100221.88;4998671;28;20221;-70
2022/12/11 08:23:38;;;;;;;23.97;11.67;;;;;;;-3.64;100.00;100231.09;4994364;28;20205;-72
2022/12/11 08:26:10;;;;;;;20.10;10.97;;;;;;;-3.62;100.00;100230.31;4991156;28;20750;-72
2022/12/11 08:28:37;;;;;;;22.17;10.97;;;;;;;-3.60;100.00;100225.28;4990494;28;20232;-73
2022/12/11 08:31:04;;;;;;;23.00;10.70;;;;;;;-3.58;100.00;100231.25;4991557;28;20205;-72
2022/12/11 08:33:30;;;;;;;21.80;11.57;;;;;;;-3.56;100.00;100233.84;4991026;28;20873;-72
2022/12/11 08:35:57;;;;;;;27.17;14.23;;;;;;;-3.64;100.00;100220.91;4991707;28;20213;-72
2022/12/11 08:38:23;;;;;;;32.50;12.90;;;;;;;-3.62;100.00;100222.69;4992245;28;20226;-71
2022/12/11 08:40:50;;;;;;;22.20;12.63;;;;;;;-3.58;100.00;100208.31;4990628;28;20219;-71
2022/12/11 08:43:17;;;;;;;27.73;13.67;;;;;;;-3.56;100.00;100218.56;4994720;28;20958;-72
2022/12/11 08:45:44;;;;;;;21.80;11.53;;;;;;;-3.54;100.00;100214.34;4990394;28;21330;-72
2022/12/11 08:48:10;;;;;;;18.57;10.53;;;;;;;-3.57;100.00;100216.81;4991670;28;20200;-72
2022/12/11 08:50:37;;;;;;;23.17;11.10;;;;;;;-3.58;100.00;100210.88;4991601;28;20216;-71
2022/12/11 08:53:04;;;;;;;27.63;12.97;;;;;;;-3.50;100.00;100218.69;4990550;28;20208;-72
2022/12/11 08:55:31;;;;;;;20.83;10.60;;;;;;;-3.52;100.00;100222.91;4991244;28;20205;-71
2022/12/11 08:57:57;;;;;;;20.60;12.17;;;;;;;-3.53;100.00;100222.06;4988745;28;20224;-72
2022/12/11 09:00:25;;;;;;;33.23;14.47;;;;;;;-3.54;100.00;100219.47;4990412;28;20243;-71
2022/12/11 09:02:52;;;;;;;28.87;14.83;;;;;;;-3.54;100.00;100217.75;4991862;28;20600;-72
2022/12/11 09:05:18;;;;;;;26.70;14.20;;;;;;;-3.57;100.00;100216.81;4994595;28;20231;-70
2022/12/11 09:07:44;;;;;;;20.23;11.07;;;;;;;-3.59;100.00;100219.34;4993081;28;20212;-70
2022/12/11 09:10:11;;;;;;;25.90;14.73;;;;;;;-3.59;100.00;100224.44;4992290;28;20216;-72
2022/12/11 09:12:37;;;;;;;22.80;11.67;;;;;;;-3.58;100.00;100222.75;4992473;28;20477;-72
2022/12/11 09:15:05;;;;;;;20.33;11.43;;;;;;;-3.58;100.00;100212.56;4991656;28;20526;-72
2022/12/11 09:17:34;;;;;;;21.20;11.10;;;;;;;-3.64;100.00;100214.16;4991848;28;20220;-72
2022/12/11 09:20:00;;;;;;;23.00;10.70;;;;;;;-3.66;100.00;100214.91;4996535;28;20585;-72
2022/12/11 09:22:27;;;;;;;21.23;11.53;;;;;;;-3.62;100.00;100209.94;4989719;28;20633;-71
2022/12/11 09:24:53;;;;;;;22.43;11.00;;;;;;;-3.67;100.00;100211.50;4995549;28;20247;-72
2022/12/11 09:27:21;;;;;;;25.20;12.87;;;;;;;-3.64;100.00;100206.50;4989969;28;20205;-71
2022/12/11 09:29:47;;;;;;;22.30;11.70;;;;;;;-3.62;100.00;100204.84;4991651;28;20227;-71
2022/12/11 09:32:13;;;;;;;23.57;11.07;;;;;;;-3.63;100.00;100205.66;4991206;28;20208;-72
2022/12/11 09:34:41;;;;;;;20.70;10.40;;;;;;;-3.65;100.00;100192.03;4993578;28;20215;-72
2022/12/11 09:37:07;;;;;;;21.87;12.30;;;;;;;-3.58;100.00;100187.09;4975333;28;20215;-72
2022/12/11 09:39:34;;;;;;;21.33;11.27;;;;;;;-3.60;100.00;100189.59;4992322;28;20290;-72
2022/12/11 09:42:07;;;;;;;25.03;12.83;;;;;;;-3.52;100.00;100182.13;4994786;28;20202;-71
2022/12/11 09:44:39;;;;;;;21.43;10.40;;;;;;;-3.59;100.00;100181.09;4990064;28;20200;-71
2022/12/11 09:47:18;;;;;;;22.93;11.60;;;;;;;-3.60;100.00;100183.66;4992465;28;20213;-71
2022/12/11 09:49:49;;;;;;;22.27;11.20;;;;;;;-3.59;100.00;100187.91;4970946;28;20224;-70
2022/12/11 09:52:20;;;;;;;19.77;10.50;;;;;;;-3.51;100.00;100189.81;4990602;28;20347;-72
2022/12/11 09:54:50;;;;;;;20.73;10.93;;;;;;;-3.46;100.00;100179.72;4990933;28;20204;-72
2022/12/11 09:57:34;;;;;;;25.20;11.03;;;;;;;-3.44;100.00;100178.94;4991543;28;20383;-72
2022/12/11 10:00:10;;;;;;;20.87;10.90;;;;;;;-3.47;100.00;100183.09;4989859;28;20618;-71
2022/12/11 10:02:49;;;;;;;22.47;11.73;;;;;;;-3.47;100.00;100175.44;4989411;28;20278;-72
2022/12/11 10:05:26;;;;;;;19.40;10.70;;;;;;;-3.50;100.00;100181.34;4985932;28;20200;-71
2022/12/11 10:07:59;;;;;;;26.73;11.80;;;;;;;-3.50;100.00;100181.34;4989914;28;20739;-72
2022/12/11 10:10:36;;;;;;;31.43;10.67;;;;;;;-3.45;100.00;100184.00;4989405;28;20232;-72
2022/12/11 10:13:12;;;;;;;23.70;10.53;;;;;;;-3.45;100.00;100184.88;4996105;28;20215;-71
2022/12/11 10:15:43;;;;;;;22.97;10.77;;;;;;;-3.45;100.00;100184.88;4995375;28;20387;-72
2022/12/11 10:18:16;;;;;;;23.83;11.37;;;;;;;-3.47;100.00;100185.66;4992974;28;20221;-72
2022/12/11 10:20:44;;;;;;;21.70;10.30;;;;;;;-3.46;100.00;100187.38;4989582;28;20215;-72
2022/12/11 10:23:17;;;;;;;21.20;10.57;;;;;;;-3.53;100.00;100186.38;4982533;28;20205;-72
2022/12/11 10:25:49;;;;;;;22.40;11.00;;;;;;;-3.48;100.00;100176.28;4988474;28;20664;-72
2022/12/11 10:28:17;;;;;;;20.93;11.13;;;;;;;-3.51;100.00;100174.50;4984366;28;20728;-72
2022/12/11 10:30:49;;;;;;;23.53;11.60;;;;;;;-3.47;100.00;100167.81;4990192;28;20209;-72
2022/12/11 10:33:21;;;;;;;22.30;10.43;;;;;;;-3.36;100.00;100165.50;4992367;28;20213;-72
2022/12/11 10:35:52;;;;;;;20.13;10.17;;;;;;;-3.49;100.00;100169.47;4992496;28;20219;-72
2022/12/11 10:38:23;;;;;;;22.83;11.30;;;;;;;-3.45;100.00;100164.47;4992232;28;20228;-71
2022/12/11 10:40:55;;;;;;;26.13;11.43;;;;;;;-3.35;100.00;100157.88;4990608;28;20211;-74
2022/12/11 10:43:32;;;;;;;25.97;10.63;;;;;;;-3.32;100.00;100157.97;4990594;28;20208;-74
2022/12/11 10:45:58;;;;;;;23.70;11.33;;;;;;;-3.29;100.00;100154.59;4988989;28;20581;-73
2022/12/11 10:48:24;;;;;;;26.17;12.70;;;;;;;-3.31;100.00;100157.13;4989793;28;20228;-74
2022/12/11 10:50:59;;;;;;;27.47;11.63;;;;;;;-3.28;100.00;100157.19;4988744;28;20205;-73
2022/12/11 10:53:26;;;;;;;19.73;11.03;;;;;;;-3.29;100.00;100144.41;4990411;28;20207;-74
2022/12/11 10:55:53;;;;;;;20.93;10.83;;;;;;;-3.25;100.00;100146.22;4988899;28;20208;-74
2022/12/11 10:58:22;;;;;;;21.80;11.77;;;;;;;-3.26;100.00;100140.22;4991346;28;20228;-73
2022/12/11 11:01:03;;;;;;;25.97;10.70;;;;;;;-3.19;100.00;100143.78;4995599;23;20245;-72
2022/12/11 11:03:31;;;;;;;19.10;10.53;;;;;;;-3.23;100.00;100134.34;4976379;28;20231;-72
2022/12/11 11:06:05;;;;;;;21.20;11.37;;;;;;;-3.16;100.00;100135.34;4976548;28;20319;-71
2022/12/11 11:08:39;;;;;;;21.13;10.97;;;;;;;-3.07;100.00;100130.44;4978653;28;20217;-72
2022/12/11 11:11:07;;;;;;;22.90;10.33;;;;;;;-3.10;100.00;100118.47;4976797;28;20231;-70
2022/12/11 11:13:34;;;;;;;23.53;11.37;;;;;;;-3.11;100.00;100115.91;4977235;28;20324;-72
2022/12/11 11:16:04;;;;;;;21.97;10.70;;;;;;;-3.13;100.00;100118.44;4977652;28;21095;-71
2022/12/11 11:18:31;;;;;;;21.90;11.03;;;;;;;-3.03;100.00;100124.56;4975732;28;20932;-71
2022/12/11 11:20:58;;;;;;;21.63;11.70;;;;;;;-3.05;100.00;100113.47;4976482;28;20276;-72
2022/12/11 11:23:26;;;;;;;29.13;14.50;;;;;;;-3.01;100.00;100117.81;4977531;28;20209;-72
2022/12/11 11:25:55;;;;;;;21.63;11.50;;;;;;;-3.12;100.00;100117.59;4978536;28;20201;-71